• Join FlightAware (Why Join?)
  • Login
  • US Flag 
09:01PM EDT


 

Airport Tracker/Info


-or-


 

Live Flight TrackerFlight Track Log ✈ GEC8188 ✈ 09-May-2013 ✈ EDDF / FRA - KJFK

Flight Track Log - Related Links

Times and Time Zones

All times are in EDT time to prevent confusion due to time zone crossing. See the GEC8188 flight status page for this flight to view local times or setup timezone preferences in your user account.

Time Position Orientation Groundspeed Altitude Reporting Facility
EDT Latitude Longitude Course Direction KTS MPH feet Rate Location/Type
02:10PM 54.1034 -17.6196 294° West  Level Estimated
02:11PM 54.1110 -17.8307 274° West  Level Estimated
02:12PM 54.1182 -18.0418 273° West  Level Estimated
02:13PM 54.1250 -18.2530 273° West  Level Estimated
02:14PM 54.1315 -18.4643 273° West  Level Estimated
02:15PM 54.1376 -18.6757 273° West  Level Estimated
02:16PM 54.1433 -18.8871 273° West  Level Estimated
02:17PM 54.1487 -19.0985 273° West  Level Estimated
02:18PM 54.1537 -19.3100 272° West  Level Estimated
02:19PM 54.1583 -19.5216 272° West  Level Estimated
02:20PM 54.1626 -19.7332 272° West  Level Estimated
02:21PM 54.1664 -19.9449 272° West  Level Estimated
02:22PM 54.1699 -20.1565 272° West  Level Estimated
02:23PM 54.1731 -20.3683 272° West  Level Estimated
02:24PM 54.1758 -20.5800 271° West  Level Estimated
02:25PM 54.1782 -20.7918 271° West  Level Estimated
02:26PM 54.1803 -21.0036 271° West  Level Estimated
02:27PM 54.1819 -21.2154 271° West  Level Estimated
02:27PM 55.0000 -20.0000 264° West 441 507 31,000  Level ETMS Enhanced Traffic Management System
02:28PM 54.1832 -21.4272 271° West  Level Estimated
02:29PM 54.1841 -21.6391 271° West  Level Estimated
02:30PM 54.1846 -21.8510 270° West  Level Estimated
02:31PM 54.1848 -22.0628 270° West  Level Estimated
02:32PM 54.1846 -22.2747 270° West  Level Estimated
02:33PM 54.1840 -22.4865 270° West  Level Estimated
02:34PM 54.9061 -21.4861 263° West 441 507 31,000  Level FlightAware Transoceanic
02:35PM 54.8912 -21.6978 263° West 441 507 31,000  Level FlightAware Transoceanic
02:36PM 54.8759 -21.9094 263° West 441 507 31,000  Level FlightAware Transoceanic
02:37PM 54.8603 -22.1208 263° West 441 507 31,000  Level FlightAware Transoceanic
02:38PM 54.8443 -22.3320 262° West 441 507 31,000  Level FlightAware Transoceanic
02:39PM 54.8279 -22.5431 262° West 441 507 31,000  Level FlightAware Transoceanic
02:40PM 54.8112 -22.7540 262° West 441 507 31,000  Level FlightAware Transoceanic
02:41PM 54.7941 -22.9647 262° West 441 507 31,000  Level FlightAware Transoceanic
02:42PM 54.7766 -23.1752 262° West 441 507 31,000  Level FlightAware Transoceanic
02:43PM 54.7588 -23.3856 262° West 441 507 31,000  Level FlightAware Transoceanic
02:44PM 54.7406 -23.5957 261° West 441 507 31,000  Level FlightAware Transoceanic
02:45PM 54.7221 -23.8057 261° West 441 507 31,000  Level FlightAware Transoceanic
02:46PM 54.7032 -24.0155 261° West 441 507 31,000  Level FlightAware Transoceanic
02:47PM 54.6839 -24.2251 261° West 441 507 31,000  Level FlightAware Transoceanic
02:48PM 54.6643 -24.4344 261° West 441 507 31,000  Level FlightAware Transoceanic
02:49PM 54.6443 -24.6436 261° West 441 507 31,000  Level FlightAware Transoceanic
02:50PM 54.6239 -24.8526 260° West 441 507 31,000  Level FlightAware Transoceanic
02:51PM 54.6032 -25.0613 260° West 441 507 31,000  Level FlightAware Transoceanic
02:52PM 54.5821 -25.2699 260° West 441 507 31,000  Level FlightAware Transoceanic
02:53PM 54.5607 -25.4782 260° West 441 507 31,000  Level FlightAware Transoceanic
02:54PM 54.5389 -25.6863 260° West 441 507 31,000  Level FlightAware Transoceanic
02:55PM 54.5168 -25.8942 260° West 441 507 31,000  Level FlightAware Transoceanic
02:56PM 54.4943 -26.1018 259° West 441 507 31,000  Level FlightAware Transoceanic
02:57PM 54.4714 -26.3092 259° West 441 507 31,000  Level FlightAware Transoceanic
02:58PM 54.4482 -26.5164 259° West 441 507 31,000  Level FlightAware Transoceanic
02:59PM 54.4246 -26.7234 259° West 441 507 31,000  Level FlightAware Transoceanic
03:00PM 54.4007 -26.9301 259° West 441 507 31,000  Level FlightAware Transoceanic
03:01PM 54.3764 -27.1366 259° West 441 507 31,000  Level FlightAware Transoceanic
03:02PM 54.3518 -27.3428 258° West 441 507 31,000  Level FlightAware Transoceanic
03:03PM 54.3268 -27.5488 258° West 441 507 31,000  Level FlightAware Transoceanic
03:04PM 54.3015 -27.7545 258° West 441 507 31,000  Level FlightAware Transoceanic
03:05PM 54.2758 -27.9600 258° West 441 507 31,000  Level FlightAware Transoceanic
03:06PM 54.2498 -28.1652 258° West 441 507 31,000  Level FlightAware Transoceanic
03:07PM 54.2234 -28.3701 257° West 441 507 31,000  Level FlightAware Transoceanic
03:08PM 54.1967 -28.5748 257° West 441 507 31,000  Level FlightAware Transoceanic
03:09PM 54.1696 -28.7792 257° West 441 507 31,000  Level FlightAware Transoceanic
03:10PM 54.1422 -28.9834 257° West 441 507 31,000  Level FlightAware Transoceanic
03:11PM 54.1145 -29.1873 257° West 441 507 31,000  Level FlightAware Transoceanic
03:12PM 54.0864 -29.3909 257° West 441 507 31,000  Level FlightAware Transoceanic
03:13PM 54.0579 -29.5942 257° West 441 507 31,000  Level FlightAware Transoceanic
03:14PM 54.0291 -29.7972 256° West 441 507 31,000  Level FlightAware Transoceanic
03:15PM 53.9997 -30.0022 256° West  Level FlightAware Approximate
03:16PM 53.9990 -30.0042 248° West  Level FlightAware Approximate
03:17PM 53.9517 -30.1990 248° West  Level FlightAware Approximate
03:18PM 53.9041 -30.3934 247° West  Level FlightAware Approximate
03:19PM 53.8561 -30.5874 247° West  Level FlightAware Approximate
03:20PM 53.8079 -30.7809 247° West  Level FlightAware Approximate
03:21PM 53.7593 -30.9739 247° West  Level FlightAware Approximate
03:22PM 53.7105 -31.1666 247° West  Level FlightAware Approximate
03:23PM 53.6613 -31.3587 247° West  Level FlightAware Approximate
03:24PM 53.6118 -31.5504 247° West  Level FlightAware Approximate
03:25PM 53.5621 -31.7417 246° West  Level FlightAware Approximate
03:26PM 53.5120 -31.9325 246° West  Level FlightAware Approximate
03:27PM 53.4616 -32.1229 246° West  Level FlightAware Approximate
03:28PM 53.4109 -32.3128 246° West  Level FlightAware Approximate
03:29PM 53.3599 -32.5023 246° West  Level FlightAware Approximate
03:30PM 53.3086 -32.6913 246° West  Level FlightAware Approximate
03:31PM 53.2570 -32.8798 245° Southwest  Level FlightAware Approximate
03:32PM 53.2051 -33.0679 245° Southwest  Level FlightAware Approximate
03:33PM 53.1530 -33.2556 245° Southwest  Level FlightAware Approximate
03:34PM 53.1005 -33.4428 245° Southwest  Level FlightAware Approximate
03:35PM 53.0477 -33.6295 245° Southwest  Level FlightAware Approximate
03:36PM 52.9946 -33.8158 245° Southwest  Level FlightAware Approximate
03:37PM 52.9413 -34.0016 245° Southwest  Level FlightAware Approximate
03:38PM 52.8876 -34.1869 244° Southwest  Level FlightAware Approximate
03:39PM 52.8337 -34.3718 244° Southwest  Level FlightAware Approximate
03:40PM 52.7795 -34.5562 244° Southwest  Level FlightAware Approximate
03:41PM 52.7250 -34.7402 244° Southwest  Level FlightAware Approximate
03:42PM 52.6702 -34.9237 244° Southwest  Level FlightAware Approximate
03:43PM 52.6151 -35.1068 244° Southwest  Level FlightAware Approximate
03:44PM 52.5598 -35.2894 244° Southwest  Level FlightAware Approximate
03:45PM 52.5042 -35.4715 243° Southwest  Level FlightAware Approximate
03:46PM 52.4482 -35.6532 243° Southwest  Level FlightAware Approximate
03:47PM 52.3921 -35.8344 243° Southwest  Level FlightAware Approximate
03:48PM 52.3356 -36.0151 243° Southwest  Level FlightAware Approximate
03:49PM 52.2789 -36.1954 243° Southwest  Level FlightAware Approximate
03:50PM 52.2219 -36.3752 243° Southwest  Level FlightAware Approximate
03:51PM 52.1646 -36.5546 243° Southwest  Level FlightAware Approximate
03:52PM 52.1070 -36.7335 242° Southwest  Level FlightAware Approximate
03:53PM 52.0492 -36.9119 242° Southwest  Level FlightAware Approximate
03:54PM 51.9911 -37.0899 242° Southwest  Level FlightAware Approximate
03:55PM 51.9328 -37.2673 242° Southwest  Level FlightAware Approximate
03:56PM 51.8741 -37.4444 242° Southwest  Level FlightAware Approximate
03:57PM 51.8153 -37.6210 242° Southwest  Level FlightAware Approximate
03:58PM 51.7572 -37.7981 242° Southwest  Level FlightAware Approximate
03:59PM 51.6989 -37.9747 242° Southwest  Level FlightAware Approximate
04:00PM 51.6403 -38.1509 242° Southwest  Level FlightAware Approximate
04:01PM 51.5815 -38.3266 242° Southwest  Level FlightAware Approximate
04:02PM 51.5224 -38.5019 242° Southwest  Level FlightAware Approximate
04:03PM 51.4630 -38.6767 241° Southwest  Level FlightAware Approximate
04:04PM 51.4034 -38.8510 241° Southwest  Level FlightAware Approximate
04:05PM 51.3435 -39.0249 241° Southwest  Level FlightAware Approximate
04:06PM 51.2834 -39.1984 241° Southwest  Level FlightAware Approximate
04:07PM 51.2230 -39.3713 241° Southwest  Level FlightAware Approximate
04:08PM 51.1623 -39.5439 241° Southwest  Level FlightAware Approximate
04:09PM 51.1014 -39.7160 241° Southwest  Level FlightAware Approximate
04:10PM 51.0403 -39.8876 241° Southwest  Level FlightAware Approximate
04:11PM 50.9847 -40.0631 249° West  Level FlightAware Approximate
04:12PM 50.9399 -40.2467 249° West  Level FlightAware Approximate
04:13PM 50.8948 -40.4298 249° West  Level FlightAware Approximate
04:14PM 50.8494 -40.6127 249° West  Level FlightAware Approximate
04:15PM 50.8037 -40.7951 248° West  Level FlightAware Approximate
04:16PM 50.7578 -40.9772 248° West  Level FlightAware Approximate
04:17PM 50.7116 -41.1590 248° West  Level FlightAware Approximate
04:18PM 50.6651 -41.3404 248° West  Level FlightAware Approximate
04:19PM 50.6183 -41.5214 248° West  Level FlightAware Approximate
04:20PM 50.5712 -41.7021 248° West  Level FlightAware Approximate
04:21PM 50.5238 -41.8824 248° West  Level FlightAware Approximate
04:22PM 50.4762 -42.0623 247° West  Level FlightAware Approximate
04:23PM 50.4283 -42.2419 247° West  Level FlightAware Approximate
04:24PM 50.3801 -42.4211 247° West  Level FlightAware Approximate
04:25PM 50.3317 -42.6000 247° West  Level FlightAware Approximate
04:26PM 50.2829 -42.7785 247° West  Level FlightAware Approximate
04:27PM 50.2339 -42.9566 247° West  Level FlightAware Approximate
04:28PM 50.1847 -43.1343 247° West  Level FlightAware Approximate
04:29PM 50.1351 -43.3117 247° West  Level FlightAware Approximate
04:30PM 50.0853 -43.4887 246° West  Level FlightAware Approximate
04:31PM 50.0352 -43.6654 246° West  Level FlightAware Approximate
04:32PM 49.9849 -43.8417 246° West  Level FlightAware Approximate
04:33PM 49.9343 -44.0176 246° West  Level FlightAware Approximate
04:34PM 49.8834 -44.1931 246° West  Level FlightAware Approximate
04:35PM 49.8322 -44.3683 246° West  Level FlightAware Approximate
04:36PM 49.7808 -44.5431 246° West  Level FlightAware Approximate
04:37PM 49.7292 -44.7175 245° Southwest  Level FlightAware Approximate
04:38PM 49.6772 -44.8916 245° Southwest  Level FlightAware Approximate
04:39PM 49.6250 -45.0653 245° Southwest  Level FlightAware Approximate
04:40PM 49.5726 -45.2386 245° Southwest  Level FlightAware Approximate
04:41PM 49.5199 -45.4115 245° Southwest  Level FlightAware Approximate
04:42PM 49.4669 -45.5841 245° Southwest  Level FlightAware Approximate
04:43PM 49.4137 -45.7562 245° Southwest  Level FlightAware Approximate
04:44PM 49.3602 -45.9281 245° Southwest  Level FlightAware Approximate
04:45PM 49.3064 -46.0995 244° Southwest  Level FlightAware Approximate
04:46PM 49.2524 -46.2706 244° Southwest  Level FlightAware Approximate
04:47PM 49.1984 -46.4414 244° Southwest  Level FlightAware Approximate
04:48PM 49.1444 -46.6121 244° Southwest  Level FlightAware Approximate
04:49PM 49.0901 -46.7824 244° Southwest  Level FlightAware Approximate
04:50PM 49.0356 -46.9523 244° Southwest  Level FlightAware Approximate
04:51PM 48.9809 -47.1219 244° Southwest  Level FlightAware Approximate
04:52PM 48.9259 -47.2911 244° Southwest  Level FlightAware Approximate
04:53PM 48.8706 -47.4599 244° Southwest  Level FlightAware Approximate
04:54PM 48.8151 -47.6284 243° Southwest  Level FlightAware Approximate
04:55PM 48.7594 -47.7964 243° Southwest  Level FlightAware Approximate
04:56PM 48.7034 -47.9641 243° Southwest  Level FlightAware Approximate
04:57PM 48.6472 -48.1315 243° Southwest  Level FlightAware Approximate
04:58PM 48.5907 -48.2984 243° Southwest  Level FlightAware Approximate
04:59PM 48.5340 -48.4650 243° Southwest  Level FlightAware Approximate
05:00PM 48.4771 -48.6312 243° Southwest  Level FlightAware Approximate
05:01PM 48.4199 -48.7970 243° Southwest  Level FlightAware Approximate
05:02PM 48.3625 -48.9625 242° Southwest  Level FlightAware Approximate
05:03PM 48.3048 -49.1276 242° Southwest  Level FlightAware Approximate
05:04PM 48.2469 -49.2923 242° Southwest  Level FlightAware Approximate
05:05PM 48.1888 -49.4566 242° Southwest  Level FlightAware Approximate
05:06PM 48.1304 -49.6206 242° Southwest  Level FlightAware Approximate
05:06PM 48.0000 -49.9667 255° West 450 518 33,000  Level Gander Center
05:07PM 48.0718 -49.7842 242° Southwest  Level FlightAware Approximate
05:07PM 47.9667 -50.1500 255° West 450 518 33,000  Level Gander Center
05:08PM 48.0130 -49.9474 242° Southwest  Level FlightAware Approximate
05:09PM 47.9779 -50.1234 255° West  Level FlightAware Approximate
05:10PM 47.9461 -50.2996 255° West  Level FlightAware Approximate
05:11PM 47.9141 -50.4755 255° West  Level FlightAware Approximate
05:12PM 47.8817 -50.6512 255° West  Level FlightAware Approximate
05:14PM 47.7780 -51.3620 255° West 453 521 34,000  Level FlightAware
05:15PM 47.7560 -51.4840 255° West 452 520 34,000  Level FlightAware
05:15PM 47.7330 -51.6020 254° West 450 518 34,000  Level FlightAware
05:16PM 47.7100 -51.7280 255° West 449 517 34,000  Level FlightAware
05:17PM 47.6870 -51.8500 254° West 448 516 34,000  Level FlightAware
05:17PM 47.6610 -51.9880 254° West 448 516 34,000  Level FlightAware
05:18PM 47.6390 -52.1030 254° West 448 516 34,000  Level FlightAware
05:19PM 47.6160 -52.2210 254° West 448 516 34,000  Level FlightAware
05:19PM 47.5900 -52.3560 254° West 450 518 34,000  Level FlightAware
05:20PM 47.5670 -52.4760 254° West 452 520 34,000 60 Level FlightAware
05:21PM 47.5430 -52.5940 253° West 453 521 34,100 60 Climbing FlightAware
05:22PM 47.5180 -52.7220 254° West 453 521 34,100 -120 Level FlightAware
05:22PM 47.4950 -52.8400 254° West 451 519 34,000 -120 Descending FlightAware
05:23PM 47.4700 -52.9670 254° West 449 517 34,000  Level FlightAware
05:24PM 47.4440 -53.0910 253° West 448 516 34,000  Level FlightAware
05:24PM 47.4210 -53.2080 254° West 447 514 34,000  Level FlightAware
05:25PM 47.3950 -53.3340 253° West 449 517 34,000  Level FlightAware
05:26PM 47.3710 -53.4530 253° West 448 516 34,000  Level FlightAware
05:26PM 47.3430 -53.5860 253° West 449 517 34,000  Level FlightAware
05:27PM 47.3190 -53.7010 253° West 450 518 34,000  Level FlightAware
05:28PM 47.2930 -53.8280 253° West 449 517 34,000 60 Level FlightAware
05:29PM 47.2680 -53.9450 253° West 448 516 34,100  Climbing FlightAware
05:29PM 47.2440 -54.0600 253° West 447 514 34,000 -120 Descending FlightAware
05:30PM 47.2160 -54.1920 253° West 447 514 34,000  Level FlightAware
05:31PM 47.1930 -54.3030 253° West 447 514 34,000  Level FlightAware
05:31PM 47.1640 -54.4340 252° West 446 513 34,000  Level FlightAware
05:32PM 47.1390 -54.5480 252° West 446 513 34,000  Level FlightAware
05:33PM 47.1150 -54.6620 253° West 446 513 34,000  Level FlightAware
05:33PM 47.0860 -54.7930 252° West 446 513 34,000  Level FlightAware
05:34PM 47.0610 -54.9080 252° West 446 513 34,000  Level FlightAware
05:35PM 47.0330 -55.0310 252° West 447 514 34,000  Level FlightAware
05:36PM 47.0080 -55.1450 252° West 447 514 34,000  Level FlightAware
05:36PM 46.9830 -55.2600 252° West 448 516 34,000  Level FlightAware
05:37PM 46.9590 -55.3650 252° West 448 516 34,000  Level FlightAware
05:38PM 46.9270 -55.5060 252° West 448 516 34,000  Level FlightAware
05:38PM 46.8980 -55.6350 252° West 447 514 34,000  Level FlightAware
05:39PM 46.8720 -55.7480 251° West 446 513 34,000  Level FlightAware
05:40PM 46.8460 -55.8610 251° West 446 513 34,000  Level FlightAware
05:40PM 46.8170 -55.9850 251° West 444 511 34,000  Level FlightAware
05:41PM 46.7950 -56.0780 251° West 443 510 34,000  Level FlightAware
05:42PM 46.7630 -56.2180 252° West 443 510 34,000  Level FlightAware
05:43PM 46.7360 -56.3300 251° West 442 509 34,000  Level FlightAware
05:43PM 46.7110 -56.4390 252° West 440 506 34,000  Level FlightAware
05:44PM 46.6810 -56.5630 251° West 439 505 34,000  Level FlightAware
05:45PM 46.6550 -56.6720 251° West 439 505 34,000  Level FlightAware
05:45PM 46.6270 -56.7900 251° West 436 502 34,000  Level FlightAware
05:46PM 46.6040 -56.8860 251° West 436 502 34,000  Level FlightAware
05:47PM 46.5760 -57.0010 251° West 436 502 34,000  Level FlightAware
05:48PM 46.5350 -57.1710 251° West 435 501 34,000  Level FlightAware
05:48PM 46.5120 -57.2650 250° West 435 501 34,000  Level FlightAware
05:49PM 46.4760 -57.4090 250° West 435 501 34,000  Level FlightAware
05:50PM 46.4450 -57.5330 250° West 433 498 34,000  Level FlightAware
05:50PM 46.4200 -57.6310 250° West 434 499 34,000  Level FlightAware
05:51PM 46.3930 -57.7400 250° West 434 499 34,000  Level FlightAware
05:52PM 46.3580 -57.8780 250° West 433 498 34,000  Level FlightAware
05:53PM 46.3310 -57.9860 250° West 434 499 34,000  Level FlightAware
05:53PM 46.3030 -58.0960 250° West 434 499 34,000  Level FlightAware
05:54PM 46.2660 -58.2440 250° West 434 499 34,000  Level FlightAware
05:55PM 46.2330 -58.3670 249° West 434 499 34,000  Level FlightAware
05:56PM 46.2020 -58.4880 250° West 433 498 34,000  Level FlightAware
05:56PM 46.1730 -58.5980 249° West 434 499 34,000  Level FlightAware
05:57PM 46.1460 -58.7040 250° West 433 498 34,000  Level FlightAware
05:58PM 46.1130 -58.8290 249° West 432 497 34,000  Level FlightAware
05:58PM 46.0840 -58.9370 249° West 432 497 34,000  Level FlightAware
05:59PM 46.0530 -59.0560 249° West 432 497 34,000  Level FlightAware
06:00PM 46.0240 -59.1620 249° West 431 496 34,000  Level FlightAware
06:00PM 45.9960 -59.2700 250° West 431 496 34,000  Level FlightAware
06:01PM 45.9630 -59.3930 249° West 431 496 34,000  Level FlightAware
06:02PM 45.9330 -59.5020 248° West 431 496 34,000  Level FlightAware
06:03PM 45.9050 -59.6070 249° West 431 496 34,000  Level FlightAware
06:03PM 45.8730 -59.7240 249° West 431 496 34,000  Level FlightAware
06:04PM 45.8430 -59.8320 248° West 429 494 34,000  Level FlightAware
06:05PM 45.8090 -59.9540 248° West 428 493 34,000  Level FlightAware
06:05PM 45.7810 -60.0580 249° West 426 490 34,000  Level FlightAware
06:06PM 45.7510 -60.1650 248° West 425 489 34,000  Level FlightAware
06:07PM 45.7190 -60.2810 248° West 426 490 34,000  Level FlightAware
06:07PM 45.6890 -60.3840 247° West 427 491 34,000  Level FlightAware
06:08PM 45.6550 -60.5060 248° West 429 494 34,000  Level FlightAware
06:09PM 45.6250 -60.6130 248° West 430 495 34,000  Level FlightAware
06:10PM 45.5910 -60.7320 248° West 432 497 34,000  Level FlightAware
06:10PM 45.5620 -60.8340 248° West 433 498 34,000  Level FlightAware
06:11PM 45.5310 -60.9410 248° West 433 498 34,000  Level FlightAware
06:12PM 45.4960 -61.0630 248° West 431 496 34,000  Level FlightAware
06:12PM 45.4650 -61.1700 248° West 428 493 34,000  Level FlightAware
06:13PM 45.4300 -61.2890 247° West 428 493 34,000  Level FlightAware
06:14PM 45.3970 -61.3990 247° West 428 493 34,000  Level FlightAware
06:15PM 45.3710 -61.4870 247° West 428 493 34,000  Level FlightAware
06:15PM 45.3450 -61.5750 247° West 428 493 34,000  Level FlightAware
06:16PM 45.3180 -61.6640 247° West 428 493 34,000  Level FlightAware
06:17PM 45.2920 -61.7520 247° West 428 493 34,000  Level FlightAware
06:18PM 45.2590 -61.8620 247° West 428 493 34,000  Level FlightAware
06:18PM 45.2330 -61.9500 247° West 428 493 34,000  Level FlightAware
06:19PM 45.2070 -62.0380 247° West 428 493 34,000  Level FlightAware
06:20PM 45.1800 -62.1260 247° West 428 493 34,000  Level FlightAware
06:20PM 45.1540 -62.2140 247° West 428 493 34,000  Level FlightAware
06:21PM 45.1210 -62.3230 247° West 428 493 34,000  Level FlightAware
06:22PM 45.0950 -62.4110 247° West 428 493 34,000  Level FlightAware
06:22PM 45.0680 -62.4990 247° West 428 493 34,000  Level FlightAware
06:25PM 44.8870 -63.0850 247° West 34,100  Climbing FlightAware
06:26PM 44.8430 -63.2260 246° West 437 503 34,000 -60 Descending FlightAware
06:26PM 44.8060 -63.3440 246° West 435 501 34,000  Level FlightAware
06:27PM 44.7640 -63.4740 246° West 431 496 34,000  Level FlightAware
06:28PM 44.7350 -63.5670 246° West 431 496 34,000  Level FlightAware
06:28PM 44.7010 -63.6740 246° West 432 497 34,000  Level FlightAware
06:29PM 44.6620 -63.7940 245° Southwest 433 498 34,000  Level FlightAware
06:30PM 44.6290 -63.8960 246° West 434 499 34,000  Level FlightAware
06:31PM 44.5910 -64.0150 246° West 436 502 34,000 60 Level FlightAware
06:31PM 44.5570 -64.1190 245° Southwest 437 503 34,100 60 Climbing FlightAware
06:32PM 44.5260 -64.2140 245° Southwest 435 501 34,100 -120 Level FlightAware
06:33PM 44.4850 -64.3390 245° Southwest 432 497 34,000 -120 Descending FlightAware
06:33PM 44.4520 -64.4380 245° Southwest 432 497 34,000  Level FlightAware
06:34PM 44.4160 -64.5480 245° Southwest 432 497 34,000  Level FlightAware
06:35PM 44.3810 -64.6520 245° Southwest 437 503 34,000  Level FlightAware
06:35PM 44.3470 -64.7540 245° Southwest 439 505 34,000  Level FlightAware
06:36PM 44.3100 -64.8640 245° Southwest 441 507 34,000 60 Level FlightAware
06:37PM 44.2720 -64.9760 245° Southwest 444 511 34,100 60 Climbing FlightAware
06:38PM 44.2350 -65.0880 245° Southwest 441 507 34,100 -120 Level FlightAware
06:38PM 44.2020 -65.1870 245° Southwest 436 502 34,000 -120 Descending FlightAware
06:39PM 44.1610 -65.3060 244° Southwest 433 498 34,000  Level FlightAware
06:40PM 44.1320 -65.3910 245° Southwest 431 496 34,000  Level FlightAware
06:40PM 44.0960 -65.4960 245° Southwest 429 494 34,000  Level FlightAware
06:41PM 44.0560 -65.6130 245° Southwest 434 499 34,000  Level FlightAware
06:42PM 44.0210 -65.7130 244° Southwest 434 499 34,000 60 Level FlightAware
06:43PM 43.9820 -65.8250 244° Southwest 434 499 34,100  Climbing FlightAware
06:43PM 43.9480 -65.9230 244° Southwest 432 497 34,000 -120 Descending FlightAware
06:44PM 43.9180 -66.0100 244° Southwest 426 490 34,000  Level FlightAware
06:44PM 43.8840 -66.1070 244° Southwest 424 488 34,000  Level FlightAware
06:45PM 43.8450 -66.2180 244° Southwest 428 493 34,000  Level FlightAware
06:46PM 43.8100 -66.3150 243° Southwest 429 494 34,000  Level FlightAware
06:47PM 43.7710 -66.4260 244° Southwest 429 494 34,000 60 Level FlightAware
06:47PM 43.7360 -66.5230 243° Southwest 428 493 34,100  Climbing FlightAware
06:48PM 43.7010 -66.6210 244° Southwest 421 484 34,000 -120 Descending FlightAware
06:49PM 43.6630 -66.7280 244° Southwest 419 482 34,000  Level FlightAware
06:49PM 43.6290 -66.8220 243° Southwest 417 480 34,000  Level FlightAware
06:50PM 43.5900 -66.9310 244° Southwest 416 479 34,000  Level FlightAware
06:51PM 43.5550 -67.0240 243° Southwest 414 476 34,000  Level FlightAware
06:51PM 43.5160 -67.1160 240° Southwest 416 479 34,000  Level FlightAware
06:52PM 43.4720 -67.2210 240° Southwest 421 484 34,000  Level FlightAware
06:53PM 43.4340 -67.3110 240° Southwest 421 484 34,000  Level FlightAware
06:54PM 43.3890 -67.4170 240° Southwest 422 486 34,000  Level FlightAware
06:54PM 43.3510 -67.5070 240° Southwest 421 484 34,000  Level FlightAware
06:55PM 43.3110 -67.6020 240° Southwest 424 488 34,000  Level FlightAware
06:56PM 43.2660 -67.7060 239° Southwest 428 493 34,000  Level FlightAware
06:56PM 43.2350 -67.7780 239° Southwest 431 496 34,000  Level FlightAware
06:57PM 43.1800 -67.9050 239° Southwest 433 498 34,000  Level FlightAware
06:58PM 43.1310 -68.0210 240° Southwest 433 498 34,000  Level FlightAware
06:59PM 43.0710 -68.1570 239° Southwest 439 505 34,000  Level FlightAware
07:00PM 43.0290 -68.2530 239° Southwest 438 504 34,000  Level FlightAware
07:00PM 42.9820 -68.3610 239° Southwest 437 503 34,000  Level FlightAware
07:01PM 42.9470 -68.4400 239° Southwest 437 503 34,000  Level FlightAware
07:02PM 42.9000 -68.5480 239° Southwest 436 502 34,000  Level FlightAware
07:03PM 42.8430 -68.6760 239° Southwest 435 501 34,000  Level FlightAware
07:03PM 42.8010 -68.7700 239° Southwest 437 503 34,000  Level FlightAware
07:04PM 42.7600 -68.8630 239° Southwest 436 502 34,000  Level FlightAware
07:05PM 42.6930 -69.0140 239° Southwest 438 504 34,000  Level FlightAware
07:06PM 42.6640 -69.0780 238° Southwest 438 504 34,000  Level FlightAware
07:06PM 42.6340 -69.1440 238° Southwest 439 505 34,000  Level FlightAware
07:07PM 42.5820 -69.2600 239° Southwest 442 509 34,000  Level FlightAware
07:07PM 42.5390 -69.3530 238° Southwest 442 509 34,000  Level FlightAware
07:08PM 42.4910 -69.4600 239° Southwest 444 511 34,000  Level FlightAware
07:09PM 42.4550 -69.5390 238° Southwest 441 507 34,000  Level FlightAware
07:10PM 42.4080 -69.6420 238° Southwest 442 509 34,000  Level FlightAware
07:10PM 42.3590 -69.7500 238° Southwest 442 509 34,000  Level FlightAware
07:11PM 42.3160 -69.8440 238° Southwest 442 509 34,000  Level FlightAware
07:12PM 42.2640 -69.9570 238° Southwest 441 507 34,000  Level FlightAware
07:12PM 42.2210 -70.0490 238° Southwest 441 507 34,000  Level FlightAware
07:13PM 42.1760 -70.1450 238° Southwest 441 507 34,000  Level FlightAware
07:14PM 42.1270 -70.2500 238° Southwest 442 509 34,000  Level FlightAware
07:14PM 42.0820 -70.3440 237° Southwest 447 514 34,000  Level FlightAware
07:15PM 42.0300 -70.4490 236° Southwest 449 517 34,000  Level FlightAware
07:16PM 41.9860 -70.5370 236° Southwest 450 518 34,000  Level FlightAware
07:17PM 41.9320 -70.6460 236° Southwest 449 517 34,000  Level FlightAware
07:17PM 41.9020 -70.7070 237° Southwest 449 517 34,000  Level FlightAware
07:18PM 41.8430 -70.8250 236° Southwest 451 519 34,000  Level FlightAware
07:19PM 41.7750 -70.9590 236° Southwest 456 525 34,100  Climbing FlightAware
07:20PM 41.7210 -71.0670 236° Southwest 457 526 34,000 -180 Descending FlightAware
07:20PM 41.6820 -71.1440 236° Southwest 456 525 33,900 -900 Descending FlightAware
07:21PM 41.6280 -71.2500 236° Southwest 432 497 32,800 -1,740 Descending FlightAware
07:22PM 41.5830 -71.3380 236° Southwest 452 520 31,500 -1,980 Descending FlightAware
07:22PM 41.5310 -71.4390 236° Southwest 444 511 30,000 -2,160 Descending FlightAware
07:23PM 41.4780 -71.5430 236° Southwest 450 518 28,300 -2,220 Descending FlightAware
07:24PM 41.4290 -71.6390 236° Southwest 447 514 26,900 -2,040 Descending FlightAware
07:24PM 41.3820 -71.7300 235° Southwest 434 499 25,600 -1,680 Descending FlightAware
07:25PM 41.3420 -71.8090 236° Southwest 426 490 24,700 -1,140 Descending FlightAware
07:26PM 41.2910 -71.9040 234° Southwest 422 486 24,000 -780 Descending FlightAware
07:27PM 41.2080 -72.0050 222° Southwest 422 486 23,400 -1,260 Descending FlightAware
07:28PM 41.1680 -72.1120 244° Southwest 406 467 21,900 -1,140 Descending FlightAware
07:28PM 41.1420 -72.1870 245° Southwest 406 467 21,900  Level FlightAware
07:29PM 41.1150 -72.2640 245° Southwest 406 467 21,900  Level FlightAware
07:29PM 41.0940 -72.3220 244° Southwest 406 467 21,900 -2,940 Level FlightAware
07:30PM 41.0810 -72.3620 247° West 16,200 -3,480 Descending FlightAware
07:32PM 40.9550 -72.6620 241° Southwest 325 374 12,700 -1,620 Descending FlightAware
07:33PM 40.9170 -72.7160 227° Southwest 291 335 12,200 -540 Descending FlightAware
07:33PM 40.8740 -72.7740 226° Southwest 285 328 12,000 -180 Descending FlightAware
07:34PM 40.8390 -72.8220 226° Southwest 275 316 12,000 -540 Level FlightAware
07:35PM 40.7990 -72.8770 226° Southwest 275 316 11,300 -1,140 Descending FlightAware
07:35PM 40.7640 -72.9260 227° Southwest 273 314 10,400 -1,320 Descending FlightAware
07:36PM 40.7350 -72.9610 222° Southwest 268 308 9,800 -1,320 Descending FlightAware
07:36PM 40.7110 -72.9890 221° Southwest 264 304 9,200 -1,200 Descending FlightAware
07:37PM 40.6980 -73.0050 223° Southwest 267 307 9,000 -960 Descending FlightAware
07:37PM 40.6690 -73.0380 221° Southwest 269 310 8,500 -1,080 Descending FlightAware
07:37PM 40.6540 -73.0560 222° Southwest 269 310 8,200 -1,080 Descending FlightAware
07:38PM 40.6330 -73.0820 223° Southwest 265 305 7,800 -1,080 Descending FlightAware
07:38PM 40.6270 -73.0960 241° Southwest 259 298 7,600 -960 Descending FlightAware
07:39PM 40.6350 -73.1510 281° West 254 292 7,100 -900 Descending FlightAware
07:39PM 40.6480 -73.1850 297° West 253 291 6,700 -1,140 Descending FlightAware
07:39PM 40.6640 -73.2270 297° West 251 289 6,100 -1,080 Descending FlightAware
07:40PM 40.6710 -73.2450 297° West 251 289 5,900 -780 Descending FlightAware
07:40PM 40.6900 -73.2770 308° West 252 290 5,600 -780 Descending FlightAware
07:41PM 40.7120 -73.3150 307° West 252 290 5,200 -660 Descending FlightAware
07:41PM 40.7290 -73.3430 309° West 254 292 5,000 -240 Descending FlightAware
07:42PM 40.7500 -73.3780 308° West 224 258 5,000 -120 Level FlightAware
07:42PM 40.7670 -73.4070 308° West 210 242 4,900 -300 Descending FlightAware
07:42PM 40.7740 -73.4190 308° West 208 239 4,800 -900 Descending FlightAware
07:43PM 40.7910 -73.4480 308° West 205 236 4,300 -1,140 Descending FlightAware
07:43PM 40.8080 -73.4770 308° West 202 232 3,700 -1,200 Descending FlightAware
07:43PM 40.8120 -73.4920 289° West 202 232 3,500 -900 Descending FlightAware
07:44PM 40.8150 -73.5280 276° West 192 221 3,100 -600 Descending FlightAware
07:44PM 40.8170 -73.5550 276° West 175 201 3,000 -480 Descending FlightAware
07:45PM 40.8090 -73.5860 251° West 172 198 2,700 -720 Descending FlightAware
07:45PM 40.7980 -73.6160 244° Southwest 172 198 2,300 -600 Descending FlightAware
07:46PM 40.7780 -73.6490 231° Southwest 176 203 2,000 -300 Descending FlightAware
07:46PM 40.7580 -73.6650 211° Southwest 160 184 2,000  Level FlightAware
07:47PM 40.7430 -73.6770 211° Southwest 159 183 2,000 -240 Level FlightAware
07:47PM 40.7240 -73.6920 211° Southwest 154 177 1,800 -600 Descending FlightAware
07:48PM 40.7050 -73.7070 211° Southwest 155 178 1,400 -900 Descending FlightAware
07:48PM 40.6890 -73.7200 212° Southwest 154 177 1,000 -900 Descending FlightAware
07:49PM 40.6710 -73.7340 211° Southwest 152 175 600 -780 Descending FlightAware
07:49PM 40.6560 -73.7460 211° Southwest 152 175 300 -720 Descending FlightAware